sensor_id;sensor_type;location;lat;lon;timestamp;P1;durP1;ratioP1;P2;durP2;ratioP2
23608;SDS011;11982;50.810;4.442;2023-02-24T00:01:18;42.85;;;5.80;;
23608;SDS011;11982;50.810;4.442;2023-02-24T00:03:51;36.85;;;5.25;;
23608;SDS011;11982;50.810;4.442;2023-02-24T00:06:18;36.50;;;5.15;;
23608;SDS011;11982;50.810;4.442;2023-02-24T00:08:44;35.15;;;5.25;;
23608;SDS011;11982;50.810;4.442;2023-02-24T00:11:12;36.97;;;6.53;;
23608;SDS011;11982;50.810;4.442;2023-02-24T00:13:39;44.38;;;5.40;;
23608;SDS011;11982;50.810;4.442;2023-02-24T00:16:10;46.65;;;6.05;;
23608;SDS011;11982;50.810;4.442;2023-02-24T00:18:37;42.33;;;5.97;;
23608;SDS011;11982;50.810;4.442;2023-02-24T00:21:03;49.80;;;6.05;;
23608;SDS011;11982;50.810;4.442;2023-02-24T00:23:36;31.95;;;5.43;;
23608;SDS011;11982;50.810;4.442;2023-02-24T00:26:03;43.70;;;5.93;;
23608;SDS011;11982;50.810;4.442;2023-02-24T00:28:30;36.95;;;6.03;;
23608;SDS011;11982;50.810;4.442;2023-02-24T00:31:01;42.75;;;6.10;;
23608;SDS011;11982;50.810;4.442;2023-02-24T00:33:30;43.13;;;6.53;;
23608;SDS011;11982;50.810;4.442;2023-02-24T00:36:03;39.60;;;5.45;;
23608;SDS011;11982;50.810;4.442;2023-02-24T00:38:40;36.50;;;4.72;;
23608;SDS011;11982;50.810;4.442;2023-02-24T00:41:14;42.72;;;5.95;;
23608;SDS011;11982;50.810;4.442;2023-02-24T00:43:41;45.45;;;5.95;;
23608;SDS011;11982;50.810;4.442;2023-02-24T00:46:14;53.28;;;6.40;;
23608;SDS011;11982;50.810;4.442;2023-02-24T00:48:42;34.55;;;5.03;;
23608;SDS011;11982;50.810;4.442;2023-02-24T00:51:12;46.47;;;5.72;;
23608;SDS011;11982;50.810;4.442;2023-02-24T00:53:40;42.13;;;5.88;;
23608;SDS011;11982;50.810;4.442;2023-02-24T00:56:08;45.83;;;7.18;;
23608;SDS011;11982;50.810;4.442;2023-02-24T00:58:36;50.08;;;5.40;;
23608;SDS011;11982;50.810;4.442;2023-02-24T01:01:03;40.03;;;5.70;;
23608;SDS011;11982;50.810;4.442;2023-02-24T01:03:32;33.75;;;5.40;;
23608;SDS011;11982;50.810;4.442;2023-02-24T01:06:01;42.40;;;5.88;;
23608;SDS011;11982;50.810;4.442;2023-02-24T01:08:27;42.17;;;5.72;;
23608;SDS011;11982;50.810;4.442;2023-02-24T01:10:54;46.83;;;5.30;;
23608;SDS011;11982;50.810;4.442;2023-02-24T01:13:42;37.03;;;5.72;;
23608;SDS011;11982;50.810;4.442;2023-02-24T01:16:08;41.72;;;5.65;;
23608;SDS011;11982;50.810;4.442;2023-02-24T01:18:34;38.50;;;5.72;;
23608;SDS011;11982;50.810;4.442;2023-02-24T01:21:00;46.97;;;5.50;;
23608;SDS011;11982;50.810;4.442;2023-02-24T01:23:25;46.50;;;6.60;;
23608;SDS011;11982;50.810;4.442;2023-02-24T01:25:51;41.03;;;5.93;;
23608;SDS011;11982;50.810;4.442;2023-02-24T01:28:17;35.97;;;6.18;;
23608;SDS011;11982;50.810;4.442;2023-02-24T01:30:43;41.90;;;6.00;;
23608;SDS011;11982;50.810;4.442;2023-02-24T01:33:09;42.15;;;5.07;;
23608;SDS011;11982;50.810;4.442;2023-02-24T01:35:41;41.13;;;5.45;;
23608;SDS011;11982;50.810;4.442;2023-02-24T01:38:06;34.75;;;6.10;;
23608;SDS011;11982;50.810;4.442;2023-02-24T01:40:32;42.97;;;6.07;;
23608;SDS011;11982;50.810;4.442;2023-02-24T01:42:58;43.63;;;6.35;;
23608;SDS011;11982;50.810;4.442;2023-02-24T01:45:25;34.97;;;5.13;;
23608;SDS011;11982;50.810;4.442;2023-02-24T01:47:58;38.42;;;5.78;;
23608;SDS011;11982;50.810;4.442;2023-02-24T01:50:26;46.72;;;5.57;;
23608;SDS011;11982;50.810;4.442;2023-02-24T01:52:54;40.45;;;5.70;;
23608;SDS011;11982;50.810;4.442;2023-02-24T01:55:28;34.83;;;5.28;;
23608;SDS011;11982;50.810;4.442;2023-02-24T01:58:03;45.33;;;6.22;;
23608;SDS011;11982;50.810;4.442;2023-02-24T02:00:32;31.10;;;5.15;;
23608;SDS011;11982;50.810;4.442;2023-02-24T02:03:12;57.03;;;7.65;;
23608;SDS011;11982;50.810;4.442;2023-02-24T02:05:48;53.03;;;6.00;;
23608;SDS011;11982;50.810;4.442;2023-02-24T02:08:16;56.70;;;5.95;;
23608;SDS011;11982;50.810;4.442;2023-02-24T02:10:43;48.08;;;6.40;;
23608;SDS011;11982;50.810;4.442;2023-02-24T02:13:11;50.90;;;6.93;;
23608;SDS011;11982;50.810;4.442;2023-02-24T02:15:51;36.00;;;6.13;;
23608;SDS011;11982;50.810;4.442;2023-02-24T02:18:41;52.00;;;7.05;;
23608;SDS011;11982;50.810;4.442;2023-02-24T02:35:17;43.00;;;7.25;;
23608;SDS011;11982;50.810;4.442;2023-02-24T02:40:36;41.53;;;6.65;;
23608;SDS011;11982;50.810;4.442;2023-02-24T02:45:42;42.17;;;5.53;;
23608;SDS011;11982;50.810;4.442;2023-02-24T02:51:00;50.30;;;5.88;;
23608;SDS011;11982;50.810;4.442;2023-02-24T02:58:33;31.02;;;4.90;;
23608;SDS011;11982;50.810;4.442;2023-02-24T03:01:02;33.28;;;5.13;;
23608;SDS011;11982;50.810;4.442;2023-02-24T03:03:31;25.63;;;5.25;;
23608;SDS011;11982;50.810;4.442;2023-02-24T03:06:23;31.15;;;6.13;;
23608;SDS011;11982;50.810;4.442;2023-02-24T03:09:06;30.38;;;4.97;;
23608;SDS011;11982;50.810;4.442;2023-02-24T03:11:59;39.10;;;5.80;;
23608;SDS011;11982;50.810;4.442;2023-02-24T03:14:32;36.63;;;5.05;;
23608;SDS011;11982;50.810;4.442;2023-02-24T03:17:02;36.90;;;5.70;;
23608;SDS011;11982;50.810;4.442;2023-02-24T03:19:32;33.33;;;4.93;;
23608;SDS011;11982;50.810;4.442;2023-02-24T03:22:14;33.33;;;4.95;;
23608;SDS011;11982;50.810;4.442;2023-02-24T03:24:49;34.20;;;5.32;;
23608;SDS011;11982;50.810;4.442;2023-02-24T03:27:20;29.05;;;5.00;;
23608;SDS011;11982;50.810;4.442;2023-02-24T03:30:00;29.35;;;4.22;;
23608;SDS011;11982;50.810;4.442;2023-02-24T03:32:51;32.60;;;4.60;;
23608;SDS011;11982;50.810;4.442;2023-02-24T03:35:40;28.80;;;4.28;;
23608;SDS011;11982;50.810;4.442;2023-02-24T03:38:07;28.83;;;4.43;;
23608;SDS011;11982;50.810;4.442;2023-02-24T03:40:35;35.05;;;4.22;;
23608;SDS011;11982;50.810;4.442;2023-02-24T03:43:05;26.05;;;4.53;;
23608;SDS011;11982;50.810;4.442;2023-02-24T03:45:36;21.95;;;3.50;;
23608;SDS011;11982;50.810;4.442;2023-02-24T03:48:06;30.15;;;4.20;;
23608;SDS011;11982;50.810;4.442;2023-02-24T03:50:34;30.98;;;5.00;;
23608;SDS011;11982;50.810;4.442;2023-02-24T03:55:50;29.55;;;3.97;;
23608;SDS011;11982;50.810;4.442;2023-02-24T04:04:23;32.35;;;4.28;;
23608;SDS011;11982;50.810;4.442;2023-02-24T04:09:39;23.98;;;3.97;;
23608;SDS011;11982;50.810;4.442;2023-02-24T04:17:27;23.70;;;3.55;;
23608;SDS011;11982;50.810;4.442;2023-02-24T04:20:00;28.20;;;3.65;;
23608;SDS011;11982;50.810;4.442;2023-02-24T04:22:40;29.60;;;3.53;;
23608;SDS011;11982;50.810;4.442;2023-02-24T04:25:13;25.17;;;3.65;;
23608;SDS011;11982;50.810;4.442;2023-02-24T04:27:48;30.02;;;3.65;;
23608;SDS011;11982;50.810;4.442;2023-02-24T04:30:16;21.17;;;3.67;;
23608;SDS011;11982;50.810;4.442;2023-02-24T04:32:42;22.58;;;4.05;;
23608;SDS011;11982;50.810;4.442;2023-02-24T04:35:11;29.55;;;4.05;;
23608;SDS011;11982;50.810;4.442;2023-02-24T04:37:38;24.17;;;3.30;;
23608;SDS011;11982;50.810;4.442;2023-02-24T04:40:05;29.02;;;3.95;;
23608;SDS011;11982;50.810;4.442;2023-02-24T04:42:34;20.30;;;4.20;;
23608;SDS011;11982;50.810;4.442;2023-02-24T04:45:10;20.95;;;3.50;;
23608;SDS011;11982;50.810;4.442;2023-02-24T04:47:44;19.88;;;3.22;;
23608;SDS011;11982;50.810;4.442;2023-02-24T04:50:13;24.08;;;3.13;;
23608;SDS011;11982;50.810;4.442;2023-02-24T04:52:56;25.75;;;3.38;;
23608;SDS011;11982;50.810;4.442;2023-02-24T04:55:46;26.35;;;3.25;;
23608;SDS011;11982;50.810;4.442;2023-02-24T04:58:18;23.75;;;3.92;;
23608;SDS011;11982;50.810;4.442;2023-02-24T05:00:46;24.70;;;3.55;;
23608;SDS011;11982;50.810;4.442;2023-02-24T05:03:16;18.80;;;3.28;;
23608;SDS011;11982;50.810;4.442;2023-02-24T05:05:50;24.27;;;3.55;;
23608;SDS011;11982;50.810;4.442;2023-02-24T05:08:21;20.63;;;3.33;;
23608;SDS011;11982;50.810;4.442;2023-02-24T05:10:48;34.90;;;4.22;;
23608;SDS011;11982;50.810;4.442;2023-02-24T05:13:18;21.45;;;3.60;;
23608;SDS011;11982;50.810;4.442;2023-02-24T05:15:55;18.85;;;3.55;;
23608;SDS011;11982;50.810;4.442;2023-02-24T05:18:23;23.73;;;3.33;;
23608;SDS011;11982;50.810;4.442;2023-02-24T05:20:51;14.60;;;2.95;;
23608;SDS011;11982;50.810;4.442;2023-02-24T05:23:37;32.53;;;3.70;;
23608;SDS011;11982;50.810;4.442;2023-02-24T05:26:08;21.33;;;3.22;;
23608;SDS011;11982;50.810;4.442;2023-02-24T05:28:36;16.20;;;3.90;;
23608;SDS011;11982;50.810;4.442;2023-02-24T05:31:17;24.02;;;4.10;;
23608;SDS011;11982;50.810;4.442;2023-02-24T05:33:46;24.00;;;3.17;;
23608;SDS011;11982;50.810;4.442;2023-02-24T05:36:14;28.35;;;4.13;;
23608;SDS011;11982;50.810;4.442;2023-02-24T05:38:44;24.02;;;3.92;;
23608;SDS011;11982;50.810;4.442;2023-02-24T05:41:19;32.72;;;3.90;;
23608;SDS011;11982;50.810;4.442;2023-02-24T05:43:50;24.40;;;3.20;;
23608;SDS011;11982;50.810;4.442;2023-02-24T05:46:19;26.15;;;3.20;;
23608;SDS011;11982;50.810;4.442;2023-02-24T05:48:55;23.83;;;3.38;;
23608;SDS011;11982;50.810;4.442;2023-02-24T05:51:25;26.42;;;3.75;;
23608;SDS011;11982;50.810;4.442;2023-02-24T05:53:52;27.42;;;3.75;;
23608;SDS011;11982;50.810;4.442;2023-02-24T05:56:20;23.67;;;3.40;;
23608;SDS011;11982;50.810;4.442;2023-02-24T05:58:47;32.92;;;4.43;;
23608;SDS011;11982;50.810;4.442;2023-02-24T06:01:14;23.40;;;3.25;;
23608;SDS011;11982;50.810;4.442;2023-02-24T06:03:44;23.88;;;3.60;;
23608;SDS011;11982;50.810;4.442;2023-02-24T06:06:14;24.25;;;3.38;;
23608;SDS011;11982;50.810;4.442;2023-02-24T06:08:40;32.15;;;4.03;;
23608;SDS011;11982;50.810;4.442;2023-02-24T06:11:09;25.52;;;4.75;;
23608;SDS011;11982;50.810;4.442;2023-02-24T06:13:36;27.55;;;3.72;;
23608;SDS011;11982;50.810;4.442;2023-02-24T06:16:03;25.17;;;3.60;;
23608;SDS011;11982;50.810;4.442;2023-02-24T06:18:32;24.13;;;3.60;;
23608;SDS011;11982;50.810;4.442;2023-02-24T06:21:01;25.90;;;3.65;;
23608;SDS011;11982;50.810;4.442;2023-02-24T06:23:27;25.35;;;3.75;;
23608;SDS011;11982;50.810;4.442;2023-02-24T06:25:53;34.90;;;4.03;;
23608;SDS011;11982;50.810;4.442;2023-02-24T06:28:22;22.00;;;3.22;;
23608;SDS011;11982;50.810;4.442;2023-02-24T06:30:49;24.13;;;3.72;;
23608;SDS011;11982;50.810;4.442;2023-02-24T06:33:18;24.95;;;4.47;;
23608;SDS011;11982;50.810;4.442;2023-02-24T06:35:43;32.88;;;3.45;;
23608;SDS011;11982;50.810;4.442;2023-02-24T06:38:09;24.25;;;3.28;;
23608;SDS011;11982;50.810;4.442;2023-02-24T06:40:34;21.70;;;3.42;;
23608;SDS011;11982;50.810;4.442;2023-02-24T06:43:01;28.48;;;2.85;;
23608;SDS011;11982;50.810;4.442;2023-02-24T06:45:27;29.10;;;4.10;;
23608;SDS011;11982;50.810;4.442;2023-02-24T06:47:54;28.92;;;3.92;;
23608;SDS011;11982;50.810;4.442;2023-02-24T06:50:20;30.55;;;4.03;;
23608;SDS011;11982;50.810;4.442;2023-02-24T06:52:46;27.00;;;4.20;;
23608;SDS011;11982;50.810;4.442;2023-02-24T06:55:13;34.65;;;4.38;;
23608;SDS011;11982;50.810;4.442;2023-02-24T06:58:00;32.47;;;4.32;;
23608;SDS011;11982;50.810;4.442;2023-02-24T07:00:30;22.77;;;3.35;;
23608;SDS011;11982;50.810;4.442;2023-02-24T07:05:42;31.85;;;3.78;;
23608;SDS011;11982;50.810;4.442;2023-02-24T07:08:14;29.20;;;3.33;;
23608;SDS011;11982;50.810;4.442;2023-02-24T07:10:50;28.27;;;4.07;;
23608;SDS011;11982;50.810;4.442;2023-02-24T07:13:17;24.60;;;3.75;;
23608;SDS011;11982;50.810;4.442;2023-02-24T07:15:43;28.08;;;3.70;;
23608;SDS011;11982;50.810;4.442;2023-02-24T07:18:13;22.88;;;3.65;;
23608;SDS011;11982;50.810;4.442;2023-02-24T07:20:40;24.80;;;3.28;;
23608;SDS011;11982;50.810;4.442;2023-02-24T07:23:10;26.08;;;4.20;;
23608;SDS011;11982;50.810;4.442;2023-02-24T07:25:36;25.13;;;4.18;;
23608;SDS011;11982;50.810;4.442;2023-02-24T07:28:03;24.00;;;3.65;;
23608;SDS011;11982;50.810;4.442;2023-02-24T07:30:31;23.15;;;3.78;;
23608;SDS011;11982;50.810;4.442;2023-02-24T07:32:58;26.67;;;4.00;;
23608;SDS011;11982;50.810;4.442;2023-02-24T07:35:24;35.97;;;11.38;;
23608;SDS011;11982;50.810;4.442;2023-02-24T07:37:50;50.40;;;23.33;;
23608;SDS011;11982;50.810;4.442;2023-02-24T07:40:17;26.25;;;9.82;;
23608;SDS011;11982;50.810;4.442;2023-02-24T07:42:46;21.63;;;9.85;;
23608;SDS011;11982;50.810;4.442;2023-02-24T07:45:18;31.08;;;6.30;;
23608;SDS011;11982;50.810;4.442;2023-02-24T07:47:44;18.70;;;4.38;;
23608;SDS011;11982;50.810;4.442;2023-02-24T07:50:10;29.00;;;5.55;;
23608;SDS011;11982;50.810;4.442;2023-02-24T07:52:38;28.55;;;5.90;;
23608;SDS011;11982;50.810;4.442;2023-02-24T07:55:05;24.45;;;5.53;;
23608;SDS011;11982;50.810;4.442;2023-02-24T07:57:33;23.02;;;4.18;;
23608;SDS011;11982;50.810;4.442;2023-02-24T08:00:03;34.90;;;6.07;;
23608;SDS011;11982;50.810;4.442;2023-02-24T08:02:54;21.60;;;5.82;;
23608;SDS011;11982;50.810;4.442;2023-02-24T08:05:21;37.03;;;7.32;;
23608;SDS011;11982;50.810;4.442;2023-02-24T08:07:48;24.75;;;6.55;;
23608;SDS011;11982;50.810;4.442;2023-02-24T08:10:16;37.08;;;6.88;;
23608;SDS011;11982;50.810;4.442;2023-02-24T08:12:50;30.10;;;6.95;;
23608;SDS011;11982;50.810;4.442;2023-02-24T08:15:21;39.53;;;7.70;;
23608;SDS011;11982;50.810;4.442;2023-02-24T08:17:48;27.98;;;6.65;;
23608;SDS011;11982;50.810;4.442;2023-02-24T08:20:19;30.40;;;7.15;;
23608;SDS011;11982;50.810;4.442;2023-02-24T08:22:45;31.65;;;6.70;;
23608;SDS011;11982;50.810;4.442;2023-02-24T08:25:18;32.65;;;6.40;;
23608;SDS011;11982;50.810;4.442;2023-02-24T08:30:38;30.23;;;6.57;;
23608;SDS011;11982;50.810;4.442;2023-02-24T08:33:09;27.30;;;5.85;;
23608;SDS011;11982;50.810;4.442;2023-02-24T08:35:39;29.75;;;6.50;;
23608;SDS011;11982;50.810;4.442;2023-02-24T08:38:13;33.55;;;6.28;;
23608;SDS011;11982;50.810;4.442;2023-02-24T08:40:48;26.05;;;6.15;;
23608;SDS011;11982;50.810;4.442;2023-02-24T08:43:18;29.35;;;6.22;;
23608;SDS011;11982;50.810;4.442;2023-02-24T08:45:57;29.25;;;6.22;;
23608;SDS011;11982;50.810;4.442;2023-02-24T08:48:37;25.38;;;5.55;;
23608;SDS011;11982;50.810;4.442;2023-02-24T08:54:27;31.25;;;5.60;;
23608;SDS011;11982;50.810;4.442;2023-02-24T08:56:56;20.33;;;4.80;;
23608;SDS011;11982;50.810;4.442;2023-02-24T08:59:32;34.08;;;4.90;;
23608;SDS011;11982;50.810;4.442;2023-02-24T09:02:06;23.42;;;4.60;;
23608;SDS011;11982;50.810;4.442;2023-02-24T09:04:43;24.67;;;4.28;;
23608;SDS011;11982;50.810;4.442;2023-02-24T09:07:21;17.40;;;3.63;;
23608;SDS011;11982;50.810;4.442;2023-02-24T09:09:52;25.33;;;3.85;;
23608;SDS011;11982;50.810;4.442;2023-02-24T09:12:23;30.15;;;5.53;;
23608;SDS011;11982;50.810;4.442;2023-02-24T09:14:51;29.92;;;4.30;;
23608;SDS011;11982;50.810;4.442;2023-02-24T09:17:19;22.27;;;4.20;;
23608;SDS011;11982;50.810;4.442;2023-02-24T09:20:22;18.05;;;3.88;;
23608;SDS011;11982;50.810;4.442;2023-02-24T09:22:52;22.92;;;3.20;;
23608;SDS011;11982;50.810;4.442;2023-02-24T09:25:27;27.65;;;4.28;;
23608;SDS011;11982;50.810;4.442;2023-02-24T09:30:44;16.83;;;3.35;;
23608;SDS011;11982;50.810;4.442;2023-02-24T09:36:01;22.60;;;3.83;;
23608;SDS011;11982;50.810;4.442;2023-02-24T09:38:34;14.57;;;2.33;;
23608;SDS011;11982;50.810;4.442;2023-02-24T09:41:22;18.60;;;2.83;;
23608;SDS011;11982;50.810;4.442;2023-02-24T09:46:49;15.93;;;2.30;;
23608;SDS011;11982;50.810;4.442;2023-02-24T09:49:35;17.80;;;3.08;;
23608;SDS011;11982;50.810;4.442;2023-02-24T09:52:14;24.52;;;2.88;;
23608;SDS011;11982;50.810;4.442;2023-02-24T09:54:42;14.77;;;2.80;;
23608;SDS011;11982;50.810;4.442;2023-02-24T09:57:30;17.05;;;3.38;;
23608;SDS011;11982;50.810;4.442;2023-02-24T10:00:03;19.80;;;3.42;;
23608;SDS011;11982;50.810;4.442;2023-02-24T10:06:15;19.05;;;3.08;;
23608;SDS011;11982;50.810;4.442;2023-02-24T10:08:56;17.63;;;3.67;;
23608;SDS011;11982;50.810;4.442;2023-02-24T10:11:37;20.13;;;3.97;;
23608;SDS011;11982;50.810;4.442;2023-02-24T10:14:05;14.10;;;3.17;;
23608;SDS011;11982;50.810;4.442;2023-02-24T10:16:43;17.05;;;2.95;;
23608;SDS011;11982;50.810;4.442;2023-02-24T10:19:28;20.75;;;3.05;;
23608;SDS011;11982;50.810;4.442;2023-02-24T10:24:40;17.02;;;3.63;;
23608;SDS011;11982;50.810;4.442;2023-02-24T10:27:25;17.63;;;4.03;;
23608;SDS011;11982;50.810;4.442;2023-02-24T10:30:05;18.13;;;3.85;;
23608;SDS011;11982;50.810;4.442;2023-02-24T10:35:23;18.58;;;4.28;;
23608;SDS011;11982;50.810;4.442;2023-02-24T10:37:50;19.15;;;4.13;;
23608;SDS011;11982;50.810;4.442;2023-02-24T10:40:18;22.80;;;4.70;;
23608;SDS011;11982;50.810;4.442;2023-02-24T10:43:07;18.30;;;3.90;;
23608;SDS011;11982;50.810;4.442;2023-02-24T10:45:41;21.40;;;3.75;;
23608;SDS011;11982;50.810;4.442;2023-02-24T10:48:22;21.88;;;4.25;;
23608;SDS011;11982;50.810;4.442;2023-02-24T10:50:52;15.55;;;3.55;;
23608;SDS011;11982;50.810;4.442;2023-02-24T10:53:24;13.43;;;3.53;;
23608;SDS011;11982;50.810;4.442;2023-02-24T10:56:00;23.23;;;3.92;;
23608;SDS011;11982;50.810;4.442;2023-02-24T10:58:39;18.40;;;3.95;;
23608;SDS011;11982;50.810;4.442;2023-02-24T11:01:19;19.40;;;3.85;;
23608;SDS011;11982;50.810;4.442;2023-02-24T11:04:36;15.30;;;3.40;;
23608;SDS011;11982;50.810;4.442;2023-02-24T11:07:30;8.68;;;2.50;;
23608;SDS011;11982;50.810;4.442;2023-02-24T11:10:14;21.52;;;3.72;;
23608;SDS011;11982;50.810;4.442;2023-02-24T11:12:50;15.85;;;3.80;;
23608;SDS011;11982;50.810;4.442;2023-02-24T11:15:37;17.95;;;3.63;;
23608;SDS011;11982;50.810;4.442;2023-02-24T11:18:32;11.98;;;3.20;;
23608;SDS011;11982;50.810;4.442;2023-02-24T11:20:59;13.93;;;3.60;;
23608;SDS011;11982;50.810;4.442;2023-02-24T11:23:34;9.80;;;3.47;;
23608;SDS011;11982;50.810;4.442;2023-02-24T11:26:11;20.05;;;3.97;;
23608;SDS011;11982;50.810;4.442;2023-02-24T11:40:07;19.95;;;4.20;;
23608;SDS011;11982;50.810;4.442;2023-02-24T11:42:37;14.82;;;4.40;;
23608;SDS011;11982;50.810;4.442;2023-02-24T11:48:19;25.98;;;4.45;;
23608;SDS011;11982;50.810;4.442;2023-02-24T11:51:00;17.73;;;3.95;;
23608;SDS011;11982;50.810;4.442;2023-02-24T11:56:26;16.50;;;3.70;;
23608;SDS011;11982;50.810;4.442;2023-02-24T11:59:29;20.42;;;4.15;;
23608;SDS011;11982;50.810;4.442;2023-02-24T12:02:13;17.73;;;4.00;;
23608;SDS011;11982;50.810;4.442;2023-02-24T12:10:57;22.10;;;4.93;;
23608;SDS011;11982;50.810;4.442;2023-02-24T12:13:51;13.60;;;4.00;;
23608;SDS011;11982;50.810;4.442;2023-02-24T12:16:39;18.50;;;5.18;;
23608;SDS011;11982;50.810;4.442;2023-02-24T12:21:44;17.95;;;4.00;;
23608;SDS011;11982;50.810;4.442;2023-02-24T12:24:23;17.05;;;3.53;;
23608;SDS011;11982;50.810;4.442;2023-02-24T12:40:48;14.90;;;3.35;;
23608;SDS011;11982;50.810;4.442;2023-02-24T12:44:21;12.80;;;4.07;;
23608;SDS011;11982;50.810;4.442;2023-02-24T12:46:40;14.40;;;3.85;;
23608;SDS011;11982;50.810;4.442;2023-02-24T12:54:37;15.50;;;4.07;;
23608;SDS011;11982;50.810;4.442;2023-02-24T12:59:36;17.52;;;4.88;;
23608;SDS011;11982;50.810;4.442;2023-02-24T13:07:34;17.10;;;5.15;;
23608;SDS011;11982;50.810;4.442;2023-02-24T13:16:09;18.15;;;5.13;;
23608;SDS011;11982;50.810;4.442;2023-02-24T13:18:36;16.52;;;4.78;;
23608;SDS011;11982;50.810;4.442;2023-02-24T13:23:53;21.92;;;5.28;;
23608;SDS011;11982;50.810;4.442;2023-02-24T13:26:22;20.40;;;6.38;;
23608;SDS011;11982;50.810;4.442;2023-02-24T13:29:40;15.63;;;5.65;;
23608;SDS011;11982;50.810;4.442;2023-02-24T13:31:42;22.73;;;5.78;;
23608;SDS011;11982;50.810;4.442;2023-02-24T13:34:59;21.27;;;6.65;;
23608;SDS011;11982;50.810;4.442;2023-02-24T13:37:09;20.27;;;5.53;;
23608;SDS011;11982;50.810;4.442;2023-02-24T13:39:36;20.92;;;5.43;;
23608;SDS011;11982;50.810;4.442;2023-02-24T13:45:01;24.20;;;7.13;;
23608;SDS011;11982;50.810;4.442;2023-02-24T13:50:30;22.35;;;6.63;;
23608;SDS011;11982;50.810;4.442;2023-02-24T13:55:56;25.13;;;6.75;;
23608;SDS011;11982;50.810;4.442;2023-02-24T13:58:30;16.67;;;6.15;;
23608;SDS011;11982;50.810;4.442;2023-02-24T14:01:17;20.25;;;6.43;;
23608;SDS011;11982;50.810;4.442;2023-02-24T14:04:01;24.35;;;6.80;;
23608;SDS011;11982;50.810;4.442;2023-02-24T14:06:39;16.67;;;6.75;;
23608;SDS011;11982;50.810;4.442;2023-02-24T14:09:13;21.70;;;8.57;;
23608;SDS011;11982;50.810;4.442;2023-02-24T14:11:43;24.75;;;9.93;;
23608;SDS011;11982;50.810;4.442;2023-02-24T14:14:15;24.33;;;10.85;;
23608;SDS011;11982;50.810;4.442;2023-02-24T14:16:42;25.95;;;10.35;;
23608;SDS011;11982;50.810;4.442;2023-02-24T14:19:12;24.05;;;10.20;;
23608;SDS011;11982;50.810;4.442;2023-02-24T14:21:45;23.83;;;12.20;;
23608;SDS011;11982;50.810;4.442;2023-02-24T14:24:13;27.23;;;13.30;;
23608;SDS011;11982;50.810;4.442;2023-02-24T14:26:57;19.90;;;10.95;;
23608;SDS011;11982;50.810;4.442;2023-02-24T14:29:27;27.52;;;13.07;;
23608;SDS011;11982;50.810;4.442;2023-02-24T14:31:57;29.20;;;14.23;;
23608;SDS011;11982;50.810;4.442;2023-02-24T14:34:24;21.25;;;14.18;;
23608;SDS011;11982;50.810;4.442;2023-02-24T14:36:55;28.65;;;14.35;;
23608;SDS011;11982;50.810;4.442;2023-02-24T14:39:26;25.02;;;14.52;;
23608;SDS011;11982;50.810;4.442;2023-02-24T14:44:31;37.15;;;15.70;;
23608;SDS011;11982;50.810;4.442;2023-02-24T14:47:00;36.90;;;16.30;;
23608;SDS011;11982;50.810;4.442;2023-02-24T14:49:29;30.30;;;16.90;;
23608;SDS011;11982;50.810;4.442;2023-02-24T14:51:58;38.60;;;17.95;;
23608;SDS011;11982;50.810;4.442;2023-02-24T14:54:48;35.45;;;17.98;;
23608;SDS011;11982;50.810;4.442;2023-02-24T14:57:26;33.10;;;17.83;;
23608;SDS011;11982;50.810;4.442;2023-02-24T15:00:00;39.95;;;18.30;;
23608;SDS011;11982;50.810;4.442;2023-02-24T15:02:35;37.25;;;19.02;;
23608;SDS011;11982;50.810;4.442;2023-02-24T15:05:05;40.28;;;20.83;;
23608;SDS011;11982;50.810;4.442;2023-02-24T15:07:33;45.03;;;19.63;;
23608;SDS011;11982;50.810;4.442;2023-02-24T15:10:00;26.13;;;13.85;;
23608;SDS011;11982;50.810;4.442;2023-02-24T15:12:32;30.23;;;15.85;;
23608;SDS011;11982;50.810;4.442;2023-02-24T15:15:16;35.42;;;15.27;;
23608;SDS011;11982;50.810;4.442;2023-02-24T15:20:34;29.65;;;14.07;;
23608;SDS011;11982;50.810;4.442;2023-02-24T15:23:02;30.90;;;14.38;;
23608;SDS011;11982;50.810;4.442;2023-02-24T15:25:41;27.88;;;15.65;;
23608;SDS011;11982;50.810;4.442;2023-02-24T15:30:58;37.38;;;15.60;;
23608;SDS011;11982;50.810;4.442;2023-02-24T15:33:28;32.05;;;15.77;;
23608;SDS011;11982;50.810;4.442;2023-02-24T15:36:08;32.50;;;16.02;;
23608;SDS011;11982;50.810;4.442;2023-02-24T15:38:41;33.83;;;15.50;;
23608;SDS011;11982;50.810;4.442;2023-02-24T15:41:08;30.05;;;16.40;;
23608;SDS011;11982;50.810;4.442;2023-02-24T15:43:48;29.52;;;15.70;;
23608;SDS011;11982;50.810;4.442;2023-02-24T15:46:30;33.95;;;15.88;;
23608;SDS011;11982;50.810;4.442;2023-02-24T15:48:59;32.75;;;14.63;;
23608;SDS011;11982;50.810;4.442;2023-02-24T15:51:37;34.38;;;17.83;;
23608;SDS011;11982;50.810;4.442;2023-02-24T15:56:47;29.45;;;15.60;;
23608;SDS011;11982;50.810;4.442;2023-02-24T15:59:14;31.45;;;16.10;;
23608;SDS011;11982;50.810;4.442;2023-02-24T16:01:40;35.88;;;18.35;;
23608;SDS011;11982;50.810;4.442;2023-02-24T16:04:06;29.60;;;16.70;;
23608;SDS011;11982;50.810;4.442;2023-02-24T16:06:33;36.10;;;19.63;;
23608;SDS011;11982;50.810;4.442;2023-02-24T16:09:12;37.40;;;20.38;;
23608;SDS011;11982;50.810;4.442;2023-02-24T16:11:40;40.10;;;20.95;;
23608;SDS011;11982;50.810;4.442;2023-02-24T16:17:31;38.75;;;20.98;;
23608;SDS011;11982;50.810;4.442;2023-02-24T16:19:59;42.42;;;20.92;;
23608;SDS011;11982;50.810;4.442;2023-02-24T16:22:25;38.47;;;22.85;;
23608;SDS011;11982;50.810;4.442;2023-02-24T16:24:51;38.35;;;21.40;;
23608;SDS011;11982;50.810;4.442;2023-02-24T16:27:17;43.90;;;21.58;;
23608;SDS011;11982;50.810;4.442;2023-02-24T16:29:44;46.55;;;22.40;;
23608;SDS011;11982;50.810;4.442;2023-02-24T16:32:11;35.80;;;20.13;;
23608;SDS011;11982;50.810;4.442;2023-02-24T16:34:38;39.10;;;20.88;;
23608;SDS011;11982;50.810;4.442;2023-02-24T16:37:09;40.38;;;20.20;;
23608;SDS011;11982;50.810;4.442;2023-02-24T16:39:47;36.30;;;21.13;;
23608;SDS011;11982;50.810;4.442;2023-02-24T16:42:14;38.53;;;20.00;;
23608;SDS011;11982;50.810;4.442;2023-02-24T16:44:41;40.10;;;19.85;;
23608;SDS011;11982;50.810;4.442;2023-02-24T16:47:07;43.08;;;20.55;;
23608;SDS011;11982;50.810;4.442;2023-02-24T16:49:38;53.13;;;21.65;;
23608;SDS011;11982;50.810;4.442;2023-02-24T16:52:04;38.88;;;22.25;;
23608;SDS011;11982;50.810;4.442;2023-02-24T16:54:30;38.90;;;20.17;;
23608;SDS011;11982;50.810;4.442;2023-02-24T16:56:56;40.75;;;19.98;;
23608;SDS011;11982;50.810;4.442;2023-02-24T16:59:22;42.08;;;19.90;;
23608;SDS011;11982;50.810;4.442;2023-02-24T17:01:50;36.53;;;19.73;;
23608;SDS011;11982;50.810;4.442;2023-02-24T17:04:16;41.78;;;20.88;;
23608;SDS011;11982;50.810;4.442;2023-02-24T17:06:44;40.80;;;20.10;;
23608;SDS011;11982;50.810;4.442;2023-02-24T17:12:14;42.85;;;19.15;;
23608;SDS011;11982;50.810;4.442;2023-02-24T17:14:51;45.40;;;19.50;;
23608;SDS011;11982;50.810;4.442;2023-02-24T17:17:17;39.05;;;18.30;;
23608;SDS011;11982;50.810;4.442;2023-02-24T17:19:43;46.10;;;21.35;;
23608;SDS011;11982;50.810;4.442;2023-02-24T17:22:09;59.00;;;24.75;;
23608;SDS011;11982;50.810;4.442;2023-02-24T17:24:35;52.33;;;18.45;;
23608;SDS011;11982;50.810;4.442;2023-02-24T17:27:00;42.08;;;16.02;;
23608;SDS011;11982;50.810;4.442;2023-02-24T17:29:28;32.42;;;13.98;;
23608;SDS011;11982;50.810;4.442;2023-02-24T17:31:53;40.85;;;15.57;;
23608;SDS011;11982;50.810;4.442;2023-02-24T17:34:19;39.78;;;15.57;;
23608;SDS011;11982;50.810;4.442;2023-02-24T17:36:47;41.30;;;14.80;;
23608;SDS011;11982;50.810;4.442;2023-02-24T17:39:13;31.48;;;11.80;;